createdAt,value
2018-11-13T00:00:37.079Z,0.00
2018-11-13T00:01:37.081Z,0.00
2018-11-13T00:02:37.182Z,0.00
2018-11-13T00:03:37.183Z,0.00
2018-11-13T00:04:37.242Z,0.00
2018-11-13T00:05:37.327Z,0.00
2018-11-13T00:06:37.335Z,0.00
2018-11-13T00:07:37.382Z,0.00
2018-11-13T00:08:37.442Z,0.00
2018-11-13T00:09:37.495Z,0.00
2018-11-13T00:10:37.508Z,0.00
2018-11-13T00:11:37.734Z,0.00
2018-11-13T00:12:37.608Z,0.00
2018-11-13T00:13:37.658Z,0.00
2018-11-13T00:14:37.719Z,0.00
2018-11-13T00:15:37.748Z,0.00
2018-11-13T00:16:37.813Z,0.00
2018-11-13T00:17:37.835Z,0.00
2018-11-13T00:18:37.881Z,0.00
2018-11-13T00:19:37.936Z,0.00
2018-11-13T00:20:38.018Z,0.00
2018-11-13T00:21:38.019Z,0.00
2018-11-13T00:22:38.074Z,0.00
2018-11-13T00:23:38.103Z,0.00
2018-11-13T00:24:38.155Z,0.00
2018-11-13T00:25:38.191Z,0.00
2018-11-13T00:26:38.228Z,0.00
2018-11-13T00:27:38.358Z,0.00
2018-11-13T00:28:38.320Z,0.00
2018-11-13T00:29:38.395Z,0.00
2018-11-13T00:30:38.461Z,0.00
2018-11-13T00:31:38.497Z,0.00
2018-11-13T00:32:38.529Z,0.00
2018-11-13T00:33:38.624Z,0.00
2018-11-13T00:34:38.607Z,0.00
2018-11-13T00:35:38.675Z,0.00
2018-11-13T00:36:38.710Z,0.00
2018-11-13T00:37:38.759Z,0.00
2018-11-13T00:38:38.786Z,0.00
2018-11-13T00:39:38.848Z,0.00
2018-11-13T00:40:38.909Z,0.00
2018-11-13T00:41:38.947Z,0.00
2018-11-13T00:42:38.978Z,0.00
2018-11-13T00:43:39.033Z,0.00
2018-11-13T00:44:39.099Z,0.00
2018-11-13T00:45:39.265Z,0.00
2018-11-13T00:46:39.224Z,0.00
2018-11-13T00:47:39.205Z,0.00
2018-11-13T00:48:39.281Z,0.00
2018-11-13T00:49:39.322Z,0.00
2018-11-13T00:50:39.382Z,0.00
2018-11-13T00:51:39.415Z,0.00
2018-11-13T00:52:39.430Z,0.00
2018-11-13T00:53:39.510Z,0.00
2018-11-13T00:54:39.538Z,0.00
2018-11-13T00:55:39.580Z,0.00
2018-11-13T00:56:39.652Z,0.00
2018-11-13T00:57:39.696Z,0.00
2018-11-13T00:58:39.741Z,0.00
2018-11-13T00:59:39.773Z,0.00
2018-11-13T01:00:39.862Z,0.00
2018-11-13T01:01:39.869Z,0.00
2018-11-13T01:02:39.904Z,0.00
2018-11-13T01:03:39.970Z,0.00
2018-11-13T01:04:40.011Z,0.00
2018-11-13T01:05:40.108Z,0.00
2018-11-13T01:06:40.110Z,0.00
2018-11-13T01:07:40.227Z,0.00
2018-11-13T01:08:40.188Z,0.00
2018-11-13T01:09:40.244Z,0.00
2018-11-13T01:10:40.296Z,0.00
2018-11-13T01:11:40.396Z,0.00
2018-11-13T01:12:40.392Z,0.00
2018-11-13T01:13:40.448Z,0.00
2018-11-13T01:14:40.483Z,0.00
2018-11-13T01:15:40.509Z,0.00
2018-11-13T01:16:40.573Z,0.00
2018-11-13T01:17:40.625Z,0.00
2018-11-13T01:18:40.658Z,0.00
2018-11-13T01:19:40.699Z,0.00
2018-11-13T01:20:40.741Z,0.00
2018-11-13T01:21:40.797Z,0.00
2018-11-13T01:22:40.829Z,0.00
2018-11-13T01:23:40.890Z,0.00
2018-11-13T01:24:40.918Z,0.00
2018-11-13T01:25:40.980Z,0.00
2018-11-13T01:26:41.042Z,0.00
2018-11-13T01:27:41.088Z,0.00
2018-11-13T01:28:41.137Z,0.00
2018-11-13T01:29:41.170Z,0.00
2018-11-13T01:30:41.211Z,0.00
2018-11-13T01:31:41.266Z,0.00
2018-11-13T01:32:41.311Z,0.00
2018-11-13T01:33:41.357Z,0.00
2018-11-13T01:34:41.646Z,0.00
2018-11-13T01:35:41.438Z,0.00
2018-11-13T01:36:41.484Z,0.00
2018-11-13T01:37:41.550Z,0.00
2018-11-13T01:38:41.592Z,0.00
2018-11-13T01:39:41.630Z,0.00
2018-11-13T01:40:41.662Z,0.00
2018-11-13T01:41:41.791Z,0.00
2018-11-13T01:42:41.817Z,0.00
2018-11-13T01:43:41.788Z,0.00
2018-11-13T01:44:41.851Z,0.00
2018-11-13T01:45:41.891Z,0.00
2018-11-13T01:46:41.930Z,0.00
2018-11-13T01:47:42.005Z,0.00
2018-11-13T01:48:42.048Z,0.00
2018-11-13T01:49:42.528Z,0.00
2018-11-13T01:50:42.120Z,0.00
2018-11-13T01:51:42.165Z,0.00
2018-11-13T01:52:42.208Z,0.00
2018-11-13T01:53:42.274Z,0.00
2018-11-13T01:54:42.327Z,0.00
2018-11-13T01:55:42.353Z,0.00
2018-11-13T01:56:42.404Z,0.00
2018-11-13T01:57:42.506Z,0.00
2018-11-13T01:58:42.505Z,0.00
2018-11-13T01:59:42.534Z,0.00
2018-11-13T02:00:42.600Z,0.00
2018-11-13T02:01:42.913Z,0.00
2018-11-13T02:02:42.729Z,0.00
2018-11-13T02:03:42.778Z,0.00
2018-11-13T02:04:42.783Z,0.00
2018-11-13T02:05:42.870Z,0.00
2018-11-13T02:06:42.951Z,0.00
2018-11-13T02:07:43.005Z,0.00
2018-11-13T02:08:43.013Z,0.00
2018-11-13T02:09:43.057Z,0.00
2018-11-13T02:10:43.099Z,0.00
2018-11-13T02:11:43.143Z,0.00
2018-11-13T02:12:43.204Z,0.00
2018-11-13T02:13:43.232Z,0.00
2018-11-13T02:14:43.267Z,0.00
2018-11-13T02:15:43.270Z,0.00
2018-11-13T02:16:43.389Z,0.00
2018-11-13T02:17:43.443Z,0.00
2018-11-13T02:18:43.521Z,0.00
2018-11-13T02:19:43.528Z,0.00
2018-11-13T02:20:43.549Z,0.00
2018-11-13T02:21:43.557Z,0.00
2018-11-13T02:22:43.708Z,0.00
2018-11-13T02:23:43.792Z,0.00
2018-11-13T02:24:43.755Z,0.00
2018-11-13T02:25:43.734Z,0.00
2018-11-13T02:26:43.835Z,0.00
2018-11-13T02:27:43.838Z,0.00
2018-11-13T02:28:43.914Z,0.00
2018-11-13T02:29:44.030Z,0.00
2018-11-13T02:30:44.042Z,0.00
2018-11-13T02:31:44.055Z,0.00
2018-11-13T02:32:44.066Z,0.00
2018-11-13T02:33:44.102Z,0.00
2018-11-13T02:34:44.183Z,0.00
2018-11-13T02:35:44.306Z,0.00
2018-11-13T02:36:44.287Z,0.00
2018-11-13T02:37:44.358Z,0.00
2018-11-13T02:38:44.395Z,0.00
2018-11-13T02:39:44.439Z,0.00
2018-11-13T02:40:44.398Z,0.00
2018-11-13T02:41:44.731Z,0.00
2018-11-13T02:42:44.514Z,0.00
2018-11-13T02:43:44.557Z,0.00
2018-11-13T02:44:44.610Z,0.00
2018-11-13T02:45:44.631Z,0.00
2018-11-13T02:46:44.952Z,0.00
2018-11-13T02:47:44.748Z,0.00
2018-11-13T02:48:44.806Z,0.00
2018-11-13T02:49:44.829Z,0.00
2018-11-13T02:50:44.876Z,0.00
2018-11-13T02:51:44.927Z,0.00
2018-11-13T02:52:44.977Z,0.00
2018-11-13T02:53:45.059Z,0.00
2018-11-13T02:54:45.110Z,0.00
2018-11-13T02:55:45.113Z,0.00
2018-11-13T02:56:45.164Z,0.00
2018-11-13T02:57:45.201Z,0.00
2018-11-13T02:58:45.265Z,0.00
2018-11-13T02:59:45.309Z,0.00
2018-11-13T03:00:45.318Z,0.00
2018-11-13T03:01:45.383Z,0.00
2018-11-13T03:02:45.426Z,0.00
2018-11-13T03:03:45.484Z,0.00
2018-11-13T03:04:45.515Z,0.00
2018-11-13T03:05:45.576Z,0.00
2018-11-13T03:06:45.621Z,0.00
2018-11-13T03:07:45.649Z,0.00
2018-11-13T03:08:45.698Z,0.00
2018-11-13T03:09:45.785Z,0.00
2018-11-13T03:10:45.777Z,0.00
2018-11-13T03:11:45.844Z,0.00
2018-11-13T03:12:45.891Z,0.00
2018-11-13T03:13:46.012Z,0.00
2018-11-13T03:14:45.962Z,0.00
2018-11-13T03:15:46.026Z,0.00
2018-11-13T03:16:46.089Z,0.00
2018-11-13T03:17:46.199Z,0.00
2018-11-13T03:18:46.170Z,0.00
2018-11-13T03:19:46.217Z,0.00
2018-11-13T03:20:46.245Z,0.00
2018-11-13T03:21:46.300Z,0.00
2018-11-13T03:22:46.351Z,0.00
2018-11-13T03:23:46.382Z,0.00
2018-11-13T03:24:46.465Z,0.00
2018-11-13T03:25:46.520Z,0.00
2018-11-13T03:26:46.560Z,0.00
2018-11-13T03:27:46.568Z,0.00
2018-11-13T03:28:46.618Z,0.00
2018-11-13T03:29:46.641Z,0.00
2018-11-13T03:30:46.721Z,0.00
2018-11-13T03:31:46.753Z,0.00
2018-11-13T03:32:46.800Z,0.00
2018-11-13T03:33:46.826Z,0.00
2018-11-13T03:34:46.867Z,0.00
2018-11-13T03:35:46.946Z,0.00
2018-11-13T03:36:46.969Z,0.00
2018-11-13T03:37:47.010Z,0.00
2018-11-13T03:38:47.062Z,0.00
2018-11-13T03:39:47.125Z,0.00
2018-11-13T03:40:47.200Z,0.00
2018-11-13T03:41:47.214Z,0.00
2018-11-13T03:42:47.263Z,0.00
2018-11-13T03:43:47.268Z,0.00
2018-11-13T03:44:47.338Z,0.00
2018-11-13T03:45:47.392Z,0.00
2018-11-13T03:46:47.433Z,0.00
2018-11-13T03:47:47.480Z,0.00
2018-11-13T03:48:47.529Z,0.00
2018-11-13T03:49:47.583Z,0.00
2018-11-13T03:50:47.615Z,0.00
2018-11-13T03:51:47.644Z,0.00
2018-11-13T03:52:47.692Z,0.00
2018-11-13T03:53:47.744Z,0.00
2018-11-13T03:54:47.809Z,0.00
2018-11-13T03:55:47.831Z,0.00
2018-11-13T03:56:47.900Z,0.00
2018-11-13T03:57:47.925Z,0.00
2018-11-13T03:58:47.964Z,0.00
2018-11-13T03:59:48.017Z,0.00
2018-11-13T04:00:48.065Z,0.00
2018-11-13T04:01:48.103Z,0.00
2018-11-13T04:02:48.161Z,0.00
2018-11-13T04:03:48.190Z,0.00
2018-11-13T04:04:48.241Z,0.00
2018-11-13T04:05:48.298Z,0.00
2018-11-13T04:06:48.323Z,0.00
2018-11-13T04:07:48.375Z,0.00
2018-11-13T04:08:48.424Z,0.00
2018-11-13T04:09:48.483Z,0.00
2018-11-13T04:10:48.513Z,0.00
2018-11-13T04:11:48.560Z,0.00
2018-11-13T04:12:48.610Z,0.00
2018-11-13T04:13:48.650Z,0.00
2018-11-13T04:14:48.705Z,0.00
2018-11-13T04:15:48.734Z,0.00
2018-11-13T04:16:48.791Z,0.00
2018-11-13T04:17:48.841Z,0.00
2018-11-13T04:18:48.913Z,0.00
2018-11-13T04:19:48.917Z,0.00
2018-11-13T04:20:48.972Z,0.00
2018-11-13T04:21:49.043Z,0.00
2018-11-13T04:22:49.061Z,0.00
2018-11-13T04:23:49.108Z,0.00
2018-11-13T04:24:49.188Z,0.00
2018-11-13T04:25:49.191Z,0.00
2018-11-13T04:26:49.220Z,0.00
2018-11-13T04:27:49.275Z,0.00
2018-11-13T04:28:49.361Z,0.00
2018-11-13T04:29:49.382Z,0.00
2018-11-13T04:30:49.480Z,0.00
2018-11-13T04:31:49.466Z,0.00
2018-11-13T04:32:49.513Z,0.00
2018-11-13T04:33:49.554Z,0.00
2018-11-13T04:34:49.604Z,0.00
2018-11-13T04:35:49.629Z,0.00
2018-11-13T04:36:49.700Z,0.00
2018-11-13T04:37:49.740Z,0.00
2018-11-13T04:38:49.760Z,0.00
2018-11-13T04:39:49.831Z,0.00
2018-11-13T04:40:49.863Z,0.00
2018-11-13T04:41:49.910Z,0.00
2018-11-13T04:42:49.967Z,0.00
2018-11-13T04:43:50.007Z,0.00
2018-11-13T04:44:50.081Z,0.00
2018-11-13T04:45:50.088Z,0.00
2018-11-13T04:46:50.151Z,0.00
2018-11-13T04:47:50.202Z,0.00
2018-11-13T04:48:50.244Z,0.00
2018-11-13T04:49:50.315Z,0.00
2018-11-13T04:50:50.351Z,0.00
2018-11-13T04:51:50.361Z,0.00
2018-11-13T04:52:50.403Z,0.00
2018-11-13T04:53:50.468Z,0.00
2018-11-13T04:54:50.508Z,0.00
2018-11-13T04:55:50.555Z,0.00
2018-11-13T04:56:50.590Z,0.00
2018-11-13T04:57:50.660Z,0.00
2018-11-13T04:58:50.680Z,0.00
2018-11-13T04:59:50.744Z,0.00
2018-11-13T05:00:50.768Z,0.00
2018-11-13T05:01:50.822Z,0.00
2018-11-13T05:02:50.989Z,0.00
2018-11-13T05:03:50.897Z,0.00
2018-11-13T05:04:50.998Z,0.00
2018-11-13T05:05:51.014Z,0.00
2018-11-13T05:06:51.041Z,0.00
2018-11-13T05:07:51.087Z,0.00
2018-11-13T05:08:51.172Z,0.00
2018-11-13T05:09:51.196Z,0.00
2018-11-13T05:10:51.232Z,0.00
2018-11-13T05:11:51.269Z,0.00
2018-11-13T05:12:51.311Z,0.00
2018-11-13T05:13:51.411Z,0.00
2018-11-13T05:14:51.416Z,0.00
2018-11-13T05:15:51.482Z,0.00
2018-11-13T05:16:51.500Z,0.00
2018-11-13T05:17:51.775Z,0.00
2018-11-13T05:18:51.604Z,0.00
2018-11-13T05:19:51.637Z,0.00
2018-11-13T05:20:51.690Z,0.00
2018-11-13T05:21:51.736Z,0.00
2018-11-13T05:22:51.817Z,0.00
2018-11-13T05:23:51.816Z,0.00
2018-11-13T05:24:51.879Z,0.00
2018-11-13T05:25:51.912Z,0.00
2018-11-13T05:26:52.004Z,0.00
2018-11-13T05:27:52.011Z,0.00
2018-11-13T05:28:52.098Z,0.00
2018-11-13T05:29:52.109Z,0.00
2018-11-13T05:30:52.131Z,0.00
2018-11-13T05:31:52.177Z,0.00
2018-11-13T05:32:52.219Z,0.00
2018-11-13T05:33:52.274Z,0.00
2018-11-13T05:34:52.321Z,0.00
2018-11-13T05:35:52.358Z,0.00
2018-11-13T05:36:52.417Z,0.00
2018-11-13T05:37:52.448Z,0.00
2018-11-13T05:38:52.542Z,0.00
2018-11-13T05:39:52.549Z,0.00
2018-11-13T05:40:52.618Z,0.00
2018-11-13T05:41:52.787Z,0.00
2018-11-13T05:42:52.719Z,0.00
2018-11-13T05:43:52.720Z,0.00
2018-11-13T05:44:52.782Z,0.00
2018-11-13T05:45:52.810Z,0.00
2018-11-13T05:46:52.881Z,0.00
2018-11-13T05:47:52.917Z,0.00
2018-11-13T05:48:52.947Z,0.00
2018-11-13T05:49:53.023Z,0.00
2018-11-13T05:50:53.056Z,0.00
2018-11-13T05:51:53.098Z,0.00
2018-11-13T05:52:53.129Z,0.00
2018-11-13T05:53:53.179Z,0.00
2018-11-13T05:54:53.233Z,0.00
2018-11-13T05:55:53.263Z,0.00
2018-11-13T05:56:53.332Z,0.00
2018-11-13T05:57:53.401Z,0.00
2018-11-13T05:58:53.390Z,0.00
2018-11-13T05:59:53.483Z,0.00
2018-11-13T06:00:53.488Z,0.00
2018-11-13T06:01:53.580Z,0.00
2018-11-13T06:02:53.620Z,0.00
2018-11-13T06:03:53.640Z,0.00
2018-11-13T06:04:53.688Z,0.00
2018-11-13T06:05:53.720Z,0.00
2018-11-13T06:06:53.773Z,0.00
2018-11-13T06:07:53.804Z,0.00
2018-11-13T06:08:53.861Z,0.00
2018-11-13T06:09:53.912Z,0.00
2018-11-13T06:10:53.945Z,0.00
2018-11-13T06:11:54.006Z,0.00
2018-11-13T06:12:54.053Z,0.00
2018-11-13T06:13:54.191Z,0.00
2018-11-13T06:14:54.124Z,0.00
2018-11-13T06:15:54.222Z,0.00
2018-11-13T06:16:54.203Z,0.00
2018-11-13T06:17:54.263Z,0.00
2018-11-13T06:18:54.327Z,0.00
2018-11-13T06:19:54.401Z,0.00
2018-11-13T06:20:54.398Z,0.00
2018-11-13T06:21:54.432Z,0.00
2018-11-13T06:22:54.605Z,0.00
2018-11-13T06:23:54.537Z,0.00
2018-11-13T06:24:54.643Z,0.00
2018-11-13T06:25:54.619Z,0.00
2018-11-13T06:26:54.674Z,0.00
2018-11-13T06:27:54.735Z,0.00
2018-11-13T06:28:54.784Z,0.00
2018-11-13T06:29:54.824Z,0.00
2018-11-13T06:30:54.866Z,0.00
2018-11-13T06:31:54.909Z,0.00
2018-11-13T06:32:54.958Z,0.00
2018-11-13T06:33:55.241Z,0.00
2018-11-13T06:34:55.062Z,0.00
2018-11-13T06:35:55.103Z,0.00
2018-11-13T06:36:55.136Z,0.00
2018-11-13T06:37:55.182Z,0.00
2018-11-13T06:38:55.330Z,0.00
2018-11-13T06:39:55.268Z,0.00
2018-11-13T06:40:55.351Z,0.00
2018-11-13T06:41:55.353Z,0.00
2018-11-13T06:42:55.403Z,0.00
2018-11-13T06:46:55.556Z,0.00
2018-11-13T06:47:55.597Z,0.00
2018-11-13T06:48:55.677Z,0.00
2018-11-13T06:49:55.682Z,0.00
2018-11-13T06:50:55.729Z,0.00
2018-11-13T06:51:56.029Z,0.00
2018-11-13T06:52:55.873Z,0.00
2018-11-13T06:53:55.931Z,0.00
2018-11-13T06:54:55.920Z,0.00
2018-11-13T06:55:55.961Z,0.00
2018-11-13T06:56:56.006Z,0.00
2018-11-13T06:57:56.051Z,0.00
2018-11-13T06:58:56.104Z,0.00
2018-11-13T06:59:56.135Z,0.00
2018-11-13T07:00:56.191Z,0.00
2018-11-13T07:01:56.290Z,0.00
2018-11-13T07:02:56.641Z,0.00
2018-11-13T07:03:56.351Z,0.00
2018-11-13T07:04:56.500Z,0.00
2018-11-13T07:05:56.468Z,0.00
2018-11-13T07:06:56.508Z,0.00
2018-11-13T07:07:56.533Z,0.00
2018-11-13T07:08:56.593Z,0.00
2018-11-13T07:09:56.635Z,0.00
2018-11-13T07:10:56.818Z,0.00
2018-11-13T07:11:56.757Z,0.00
2018-11-13T07:12:56.846Z,0.00
2018-11-13T07:13:56.814Z,0.00
2018-11-13T07:14:56.854Z,0.00
2018-11-13T07:15:56.913Z,0.00
2018-11-13T07:16:56.947Z,0.00
2018-11-13T07:17:56.984Z,0.00
2018-11-13T07:18:57.078Z,0.00
2018-11-13T07:19:57.096Z,0.00
2018-11-13T07:20:57.135Z,0.00
2018-11-13T07:21:57.169Z,0.00
2018-11-13T07:22:57.240Z,0.00
2018-11-13T07:23:57.276Z,0.00
2018-11-13T07:24:57.335Z,0.00
2018-11-13T07:25:57.387Z,0.00
2018-11-13T07:26:57.444Z,0.00
2018-11-13T07:27:57.546Z,0.00
2018-11-13T07:28:57.524Z,0.00
2018-11-13T07:29:57.560Z,0.00
2018-11-13T07:30:57.593Z,0.00
2018-11-13T07:31:57.699Z,0.00
2018-11-13T07:32:57.691Z,0.00
2018-11-13T07:33:57.729Z,0.00
2018-11-13T07:34:57.777Z,0.00
2018-11-13T07:35:57.859Z,0.00
2018-11-13T07:36:57.879Z,0.00
2018-11-13T07:37:57.912Z,0.00
2018-11-13T07:38:58.000Z,0.00
2018-11-13T07:39:58.007Z,0.00
2018-11-13T07:40:58.081Z,0.00
2018-11-13T07:41:58.091Z,0.00
2018-11-13T07:42:58.145Z,0.00
2018-11-13T07:43:58.196Z,0.00
2018-11-13T07:44:58.233Z,0.00
2018-11-13T07:45:58.301Z,0.00
2018-11-13T07:46:58.372Z,0.00
2018-11-13T07:47:58.498Z,4.00
2018-11-13T07:48:58.400Z,0.00
2018-11-13T07:49:58.472Z,4.00
2018-11-13T07:50:58.519Z,4.00
2018-11-13T07:51:58.552Z,4.00
2018-11-13T07:52:58.572Z,8.00
2018-11-13T07:53:58.741Z,8.00
2018-11-13T07:54:58.680Z,8.00
2018-11-13T07:55:58.723Z,12.00
2018-11-13T07:56:58.789Z,16.00
2018-11-13T07:57:58.839Z,20.00
2018-11-13T07:58:58.883Z,24.00
2018-11-13T07:59:58.908Z,32.00
2018-11-13T08:00:58.962Z,40.00
2018-11-13T08:01:59.019Z,52.00
2018-11-13T08:02:59.050Z,64.00
2018-11-13T08:03:59.096Z,76.00
2018-11-13T08:04:59.135Z,88.00
2018-11-13T08:05:59.200Z,108.00
2018-11-13T08:06:59.223Z,128.00
2018-11-13T08:07:59.289Z,156.00
2018-11-13T08:08:59.337Z,184.00
2018-11-13T08:09:59.357Z,220.00
2018-11-13T08:10:59.416Z,256.00
2018-11-13T08:11:59.495Z,292.00
2018-11-13T08:12:59.625Z,332.00
2018-11-13T08:13:59.556Z,368.00
2018-11-13T08:14:59.620Z,412.00
2018-11-13T08:15:59.693Z,460.00
2018-11-13T08:16:59.686Z,512.00
2018-11-13T08:17:59.717Z,568.00
2018-11-13T08:18:59.773Z,624.00
2018-11-13T08:19:59.829Z,696.00
2018-11-13T08:20:59.905Z,772.00
2018-11-13T08:21:59.920Z,848.00
2018-11-13T08:22:59.936Z,932.00
2018-11-13T08:24:00.021Z,1020.00
2018-11-13T08:25:00.089Z,1116.00
2018-11-13T08:26:00.091Z,1208.00
2018-11-13T08:27:00.421Z,1292.00
2018-11-13T08:28:00.288Z,1388.00
2018-11-13T08:29:00.394Z,1492.00
2018-11-13T08:30:00.324Z,1596.00
2018-11-13T08:31:00.329Z,1716.00
2018-11-13T08:32:00.372Z,1836.00
2018-11-13T08:33:00.405Z,1960.00
2018-11-13T08:34:00.441Z,2112.00
2018-11-13T08:35:00.591Z,2296.00
2018-11-13T08:36:00.545Z,2432.00
2018-11-13T08:37:00.631Z,2568.00
2018-11-13T08:38:00.628Z,2712.00
2018-11-13T08:39:00.717Z,2844.00
2018-11-13T08:40:00.766Z,3004.00
2018-11-13T08:41:00.769Z,3128.00
2018-11-13T08:42:00.813Z,3192.00
2018-11-13T08:43:00.873Z,3324.00
2018-11-13T08:44:00.966Z,3556.00
2018-11-13T08:45:00.977Z,3772.00
2018-11-13T08:46:01.000Z,3916.00
2018-11-13T08:47:01.049Z,3992.00
2018-11-13T08:48:01.097Z,4052.00
2018-11-13T08:49:01.142Z,4268.00
2018-11-13T08:50:01.237Z,4480.00
2018-11-13T08:51:01.232Z,4588.00
2018-11-13T08:52:01.282Z,4700.00
2018-11-13T08:53:01.304Z,4776.00
2018-11-13T08:54:01.370Z,4968.00
2018-11-13T08:55:01.402Z,4956.00
2018-11-13T08:56:01.454Z,5132.00
2018-11-13T08:57:01.546Z,5180.00
2018-11-13T08:58:01.542Z,5072.00
2018-11-13T08:59:01.753Z,5304.00
2018-11-13T09:00:01.651Z,5796.00
2018-11-13T09:01:01.686Z,6004.00
2018-11-13T09:02:01.746Z,6104.00
2018-11-13T09:03:01.774Z,5984.00
2018-11-13T09:04:01.834Z,6536.00
2018-11-13T09:05:01.964Z,7008.00
2018-11-13T09:06:01.956Z,6604.00
2018-11-13T09:07:01.949Z,7000.00
2018-11-13T09:08:02.052Z,7240.00
2018-11-13T09:09:02.297Z,7496.00
2018-11-13T09:10:02.113Z,7660.00
2018-11-13T09:11:02.147Z,7560.00
2018-11-13T09:12:02.732Z,7748.00
2018-11-13T09:13:02.226Z,7892.00
2018-11-13T09:14:02.294Z,8296.00
2018-11-13T09:15:02.326Z,8420.00
2018-11-13T09:16:02.370Z,8504.00
2018-11-13T09:17:02.415Z,8784.00
2018-11-13T09:18:02.495Z,8436.00
2018-11-13T09:19:02.606Z,8580.00
2018-11-13T09:20:02.557Z,8724.00
2018-11-13T09:21:02.620Z,8688.00
2018-11-13T09:22:02.658Z,8944.00
2018-11-13T09:23:02.743Z,9380.00
2018-11-13T09:24:02.754Z,9260.00
2018-11-13T09:25:02.839Z,9336.00
2018-11-13T09:26:02.840Z,9384.00
2018-11-13T09:27:02.891Z,9388.00
2018-11-13T09:28:02.910Z,9656.00
2018-11-13T09:29:02.981Z,9908.00
2018-11-13T09:30:03.077Z,9944.00
2018-11-13T09:31:03.191Z,10108.00
2018-11-13T09:32:03.120Z,10564.00
2018-11-13T09:33:03.239Z,11016.00
2018-11-13T09:34:03.211Z,11048.00
2018-11-13T09:35:03.284Z,10960.00
2018-11-13T09:36:03.302Z,10956.00
2018-11-13T09:37:03.336Z,10468.00
2018-11-13T09:38:03.439Z,10400.00
2018-11-13T09:39:03.439Z,10812.00
2018-11-13T09:40:03.482Z,10960.00
2018-11-13T09:41:03.538Z,10820.00
2018-11-13T09:42:03.578Z,11248.00
2018-11-13T09:43:03.676Z,11400.00
2018-11-13T09:44:03.679Z,11660.00
2018-11-13T09:45:03.724Z,12220.00
2018-11-13T09:46:03.832Z,12956.00
2018-11-13T09:47:03.817Z,14656.00
2018-11-13T09:48:03.869Z,18976.00
2018-11-13T09:49:03.915Z,28896.00
2018-11-13T09:50:03.957Z,49600.00
2018-11-13T09:51:03.997Z,57792.00
2018-11-13T09:52:04.068Z,62592.00
2018-11-13T09:53:04.111Z,66400.00
2018-11-13T09:54:04.161Z,69344.00
2018-11-13T09:55:04.201Z,70208.00
2018-11-13T09:56:04.251Z,73792.00
2018-11-13T09:57:04.297Z,74240.00
2018-11-13T09:58:04.344Z,68736.00
2018-11-13T09:59:04.501Z,68224.00
2018-11-13T10:00:04.578Z,68672.00
2018-11-13T10:01:04.793Z,67264.00
2018-11-13T10:02:05.008Z,69248.00
2018-11-13T10:03:05.273Z,74208.00
2018-11-13T10:04:05.642Z,75264.00
2018-11-13T10:05:05.226Z,73184.00
2018-11-13T10:06:04.763Z,72992.00
2018-11-13T10:07:04.864Z,75040.00
2018-11-13T10:08:04.881Z,77088.00
2018-11-13T10:09:04.919Z,78624.00
2018-11-13T10:10:05.009Z,78816.00
2018-11-13T10:11:05.077Z,76864.00
2018-11-13T10:12:05.089Z,74720.00
2018-11-13T10:13:05.127Z,71680.00
2018-11-13T10:14:05.184Z,72032.00
2018-11-13T10:15:05.266Z,74432.00
2018-11-13T10:16:05.307Z,72576.00
2018-11-13T10:17:05.421Z,67840.00
2018-11-13T10:18:05.568Z,67264.00
2018-11-13T10:19:05.473Z,67040.00
2018-11-13T10:20:05.535Z,69856.00
2018-11-13T10:21:05.599Z,72224.00
2018-11-13T10:22:05.694Z,73536.00
2018-11-13T10:23:05.705Z,73344.00
2018-11-13T10:24:05.737Z,78016.00
2018-11-13T10:25:05.820Z,79552.00
2018-11-13T10:26:05.881Z,80640.00
2018-11-13T10:27:05.985Z,79488.00
2018-11-13T10:28:06.003Z,78976.00
2018-11-13T10:29:06.055Z,81600.00
2018-11-13T10:30:06.097Z,83072.00
2018-11-13T10:31:06.182Z,82624.00
2018-11-13T10:32:06.212Z,82240.00
2018-11-13T10:33:06.272Z,78592.00
2018-11-13T10:34:06.324Z,76832.00
2018-11-13T10:35:06.409Z,81568.00
2018-11-13T10:36:06.462Z,82144.00
2018-11-13T10:37:06.498Z,81024.00
2018-11-13T10:38:06.562Z,77984.00
2018-11-13T10:39:06.649Z,78368.00
2018-11-13T10:40:06.774Z,83776.00
2018-11-13T10:41:06.811Z,83808.00
2018-11-13T10:42:06.819Z,83872.00
2018-11-13T10:43:06.892Z,85792.00
2018-11-13T10:44:06.943Z,86528.00
2018-11-13T10:45:06.972Z,85408.00
2018-11-13T10:46:07.057Z,83680.00
2018-11-13T10:47:07.104Z,81504.00
2018-11-13T10:48:07.164Z,82368.00
2018-11-13T10:49:07.304Z,84512.00
2018-11-13T10:50:07.314Z,86336.00
2018-11-13T10:51:07.327Z,84864.00
2018-11-13T10:52:07.405Z,85312.00
2018-11-13T10:53:07.452Z,86272.00
2018-11-13T10:54:07.532Z,84224.00
2018-11-13T10:55:07.639Z,89856.00
2018-11-13T10:56:07.648Z,93504.00
2018-11-13T10:57:07.724Z,90432.00
2018-11-13T10:58:07.753Z,88128.00
2018-11-13T10:59:07.841Z,89344.00
2018-11-13T11:00:07.890Z,92640.00
2018-11-13T11:01:07.950Z,93664.00
2018-11-13T11:02:08.056Z,88288.00
2018-11-13T11:03:08.194Z,86080.00
2018-11-13T11:04:08.135Z,91648.00
2018-11-13T11:05:08.191Z,92032.00
2018-11-13T11:06:08.256Z,88192.00
2018-11-13T11:07:08.332Z,91136.00
2018-11-13T11:08:08.375Z,91936.00
2018-11-13T11:09:08.430Z,94464.00
2018-11-13T11:10:08.479Z,93248.00
2018-11-13T11:11:08.576Z,93248.00
2018-11-13T11:12:08.672Z,93440.00
2018-11-13T11:13:08.925Z,92832.00
2018-11-13T11:14:08.751Z,93760.00
2018-11-13T11:15:08.819Z,94272.00
2018-11-13T11:16:08.915Z,95712.00
2018-11-13T11:17:08.933Z,96192.00
2018-11-13T11:18:09.102Z,98336.00
2018-11-13T11:19:09.091Z,102048.00
2018-11-13T11:20:09.094Z,100544.00
2018-11-13T11:21:09.195Z,95712.00
2018-11-13T11:22:09.241Z,96128.00
2018-11-13T11:23:09.388Z,100544.00
2018-11-13T11:24:09.469Z,103360.00
2018-11-13T11:25:09.449Z,102048.00
2018-11-13T11:26:09.550Z,105984.00
2018-11-13T11:27:09.539Z,111392.00
2018-11-13T11:28:09.684Z,107616.00
2018-11-13T11:29:09.667Z,103136.00
2018-11-13T11:30:09.738Z,104640.00
2018-11-13T11:31:09.994Z,107744.00
2018-11-13T11:32:09.857Z,107456.00
2018-11-13T11:33:09.927Z,111424.00
2018-11-13T11:34:09.970Z,110016.00
2018-11-13T11:35:10.053Z,105728.00
2018-11-13T11:36:10.130Z,104928.00
2018-11-13T11:37:10.168Z,109312.00
2018-11-13T11:38:10.234Z,110784.00
2018-11-13T11:39:10.427Z,111360.00
2018-11-13T11:40:10.357Z,108800.00
2018-11-13T11:41:10.421Z,107392.00
2018-11-13T11:42:10.490Z,110720.00
2018-11-13T11:43:10.555Z,110976.00
2018-11-13T11:44:10.639Z,107424.00
2018-11-13T11:45:10.664Z,104928.00
2018-11-13T11:46:10.724Z,107200.00
2018-11-13T11:47:10.793Z,108672.00
2018-11-13T11:48:10.864Z,113472.00
2018-11-13T11:49:10.933Z,117536.00
2018-11-13T11:50:10.979Z,114432.00
2018-11-13T11:51:11.033Z,106784.00
2018-11-13T11:52:11.115Z,111968.00
2018-11-13T11:53:11.159Z,115648.00
2018-11-13T11:54:11.225Z,118400.00
2018-11-13T11:55:11.309Z,115232.00
2018-11-13T11:56:11.363Z,115776.00
2018-11-13T11:57:11.463Z,115008.00
2018-11-13T11:58:11.493Z,117536.00
2018-11-13T11:59:11.521Z,123776.00
2018-11-13T12:00:11.586Z,118752.00
2018-11-13T12:01:11.644Z,117696.00
2018-11-13T12:02:11.786Z,117408.00
2018-11-13T12:03:11.782Z,117376.00
2018-11-13T12:04:11.892Z,116352.00
2018-11-13T12:05:11.896Z,114816.00
2018-11-13T12:06:11.959Z,116384.00
2018-11-13T12:07:12.057Z,115296.00
2018-11-13T12:08:12.101Z,115520.00
2018-11-13T12:09:12.185Z,117344.00
2018-11-13T12:10:12.270Z,118880.00
2018-11-13T12:11:12.298Z,117024.00
2018-11-13T12:12:12.386Z,121312.00
2018-11-13T12:13:12.415Z,126144.00
2018-11-13T12:14:12.498Z,122432.00
2018-11-13T12:15:12.537Z,117056.00
2018-11-13T12:16:12.596Z,114400.00
2018-11-13T12:17:12.658Z,119424.00
2018-11-13T12:18:12.739Z,122208.00
2018-11-13T12:19:12.801Z,120704.00
2018-11-13T12:20:12.872Z,120736.00
2018-11-13T12:21:12.935Z,122848.00
2018-11-13T12:22:12.996Z,121472.00
2018-11-13T12:23:13.041Z,121216.00
2018-11-13T12:24:13.118Z,118208.00
2018-11-13T12:25:13.188Z,115552.00
2018-11-13T12:26:13.254Z,112544.00
2018-11-13T12:27:13.319Z,115584.00
2018-11-13T12:28:13.371Z,116928.00
2018-11-13T12:29:13.431Z,114816.00
2018-11-13T12:30:13.494Z,114912.00
2018-11-13T12:31:13.542Z,114912.00
2018-11-13T12:32:13.632Z,115136.00
2018-11-13T12:33:13.713Z,110464.00
2018-11-13T12:34:13.720Z,112032.00
2018-11-13T12:35:13.823Z,113792.00
2018-11-13T12:36:13.869Z,115328.00
2018-11-13T12:37:13.924Z,22688.00
2018-11-13T12:38:14.006Z,110240.00
2018-11-13T12:39:14.113Z,114144.00
2018-11-13T12:40:14.161Z,115744.00
2018-11-13T12:41:14.191Z,119712.00
2018-11-13T12:42:14.238Z,117888.00
2018-11-13T12:43:14.323Z,114432.00
2018-11-13T12:44:14.366Z,114976.00
2018-11-13T12:45:14.427Z,114656.00